Time;durP1;ratioP1;P1;durP2;ratioP2;P2;SDS_P1;SDS_P2;PMS_P1;PMS_P2;Temp;Humidity;BMP_temperature;BMP_pressure;BME280_temperature;BME280_humidity;BME280_pressure;Samples;Min_cycle;Max_cycle;Signal;HPM_P1;HPM_P2
2022/09/22 00:00:57;;;;;;;19.80;17.87;;;6.10;99.90;;;;;;5097282;28;20460;-69
2022/09/22 00:03:24;;;;;;;19.20;17.70;;;6.10;99.90;;;;;;5097804;28;20461;-68
2022/09/22 00:05:59;;;;;;;17.93;16.83;;;6.20;99.90;;;;;;5099440;28;20911;-70
2022/09/22 00:08:27;;;;;;;17.27;15.97;;;6.10;99.90;;;;;;5093523;28;20474;-69
2022/09/22 00:11:07;;;;;;;17.27;16.10;;;6.10;99.90;;;;;;5095257;28;20477;-69
2022/09/22 00:13:35;;;;;;;17.83;16.63;;;6.00;99.90;;;;;;5095267;28;20893;-69
2022/09/22 00:16:03;;;;;;;18.50;16.60;;;6.00;99.90;;;;;;5094902;28;20455;-70
2022/09/22 00:18:30;;;;;;;19.80;18.30;;;5.90;99.90;;;;;;5095315;28;20487;-70
2022/09/22 00:20:58;;;;;;;19.70;18.00;;;5.80;99.90;;;;;;5091242;28;20793;-68
2022/09/22 00:23:26;;;;;;;18.53;17.50;;;5.80;99.90;;;;;;5095461;28;20553;-70
2022/09/22 00:25:53;;;;;;;18.80;17.50;;;5.80;99.90;;;;;;5100983;28;20457;-68
2022/09/22 00:28:25;;;;;;;19.10;17.90;;;5.80;99.90;;;;;;5095174;28;20526;-69
2022/09/22 00:30:52;;;;;;;19.03;17.50;;;5.70;99.90;;;;;;5097590;28;20841;-68
2022/09/22 00:33:19;;;;;;;20.47;18.57;;;5.60;99.90;;;;;;5096629;28;20465;-70
2022/09/22 00:35:57;;;;;;;20.27;18.30;;;5.60;99.90;;;;;;5096359;28;20465;-69
2022/09/22 00:38:24;;;;;;;19.70;18.40;;;5.60;99.90;;;;;;5093444;28;21051;-69
2022/09/22 00:40:51;;;;;;;19.63;18.33;;;5.60;99.90;;;;;;5094307;28;20749;-69
2022/09/22 00:43:20;;;;;;;20.00;18.80;;;5.60;99.90;;;;;;5093707;28;20627;-69
2022/09/22 00:45:52;;;;;;;19.90;18.60;;;5.60;99.90;;;;;;5091665;28;20459;-69
2022/09/22 00:48:21;;;;;;;19.30;17.83;;;5.60;99.90;;;;;;5098344;28;20468;-69
2022/09/22 00:50:50;;;;;;;19.70;18.40;;;5.50;99.90;;;;;;5095195;28;20470;-69
2022/09/22 00:53:20;;;;;;;19.50;18.40;;;5.50;99.90;;;;;;5099148;28;20462;-68
2022/09/22 00:55:51;;;;;;;21.83;19.90;;;5.40;99.90;;;;;;5097818;28;21087;-71
2022/09/22 00:58:21;;;;;;;19.60;18.07;;;5.40;99.90;;;;;;5099906;28;20482;-69
2022/09/22 01:00:50;;;;;;;19.20;17.97;;;5.40;99.90;;;;;;5092804;28;20467;-69
2022/09/22 01:03:21;;;;;;;20.17;18.87;;;5.40;99.90;;;;;;5094437;28;20460;-69
2022/09/22 01:05:52;;;;;;;19.83;18.33;;;5.50;99.90;;;;;;5093675;28;20483;-70
2022/09/22 01:08:21;;;;;;;19.27;18.07;;;5.50;99.90;;;;;;5093240;28;20496;-69
2022/09/22 01:10:49;;;;;;;19.53;18.33;;;5.50;99.90;;;;;;5091711;28;20486;-68
2022/09/22 01:13:24;;;;;;;19.73;18.53;;;5.50;99.90;;;;;;5103229;28;20466;-69
2022/09/22 01:16:04;;;;;;;19.50;17.97;;;5.40;99.90;;;;;;5095347;28;20462;-69
2022/09/22 01:18:41;;;;;;;19.80;18.43;;;5.30;99.90;;;;;;5097051;28;20492;-70
2022/09/22 01:21:19;;;;;;;18.30;16.87;;;5.20;99.90;;;;;;5094119;28;20464;-68
2022/09/22 01:24:15;;;;;;;19.83;18.40;;;5.20;99.90;;;;;;5097517;28;20467;-69
2022/09/22 01:27:23;;;;;;;18.90;17.60;;;5.30;99.90;;;;;;5093939;28;20839;-69
2022/09/22 01:30:16;;;;;;;19.90;18.60;;;5.20;99.90;;;;;;5096553;28;20462;-69
2022/09/22 01:32:58;;;;;;;20.10;18.77;;;5.20;99.90;;;;;;5084172;28;20460;-69
2022/09/22 01:35:31;;;;;;;19.00;17.80;;;5.20;99.90;;;;;;5092036;28;20462;-69
2022/09/22 01:38:07;;;;;;;20.37;19.10;;;5.20;99.90;;;;;;5096187;28;21096;-69
2022/09/22 01:40:42;;;;;;;19.70;18.40;;;5.20;99.90;;;;;;5093868;28;20459;-68
2022/09/22 01:43:15;;;;;;;20.10;18.07;;;5.20;99.90;;;;;;5095063;28;21111;-69
2022/09/22 01:45:47;;;;;;;19.37;18.27;;;5.20;99.90;;;;;;5094409;28;20541;-67
2022/09/22 01:48:19;;;;;;;19.60;18.27;;;5.20;99.90;;;;;;5094899;28;20494;-68
2022/09/22 01:50:50;;;;;;;19.53;17.90;;;5.20;99.90;;;;;;5093226;28;20535;-69
2022/09/22 01:53:22;;;;;;;19.43;18.03;;;5.10;99.90;;;;;;5093713;28;20557;-68
2022/09/22 01:55:53;;;;;;;19.50;18.30;;;5.10;99.90;;;;;;5092649;28;20475;-69
2022/09/22 01:58:25;;;;;;;19.50;18.20;;;5.00;99.90;;;;;;5097035;28;20481;-69
2022/09/22 02:00:58;;;;;;;19.23;17.77;;;5.00;99.90;;;;;;5094992;28;20956;-70
2022/09/22 02:03:29;;;;;;;18.70;17.40;;;4.90;99.90;;;;;;5095093;28;20923;-70
2022/09/22 02:06:03;;;;;;;19.30;17.70;;;4.80;99.90;;;;;;5094220;28;20448;-68
2022/09/22 02:08:48;;;;;;;20.87;19.43;;;4.90;99.90;;;;;;5090172;28;20462;-69
2022/09/22 02:11:16;;;;;;;20.10;18.20;;;5.00;99.90;;;;;;5092943;28;20946;-68
2022/09/22 02:13:44;;;;;;;19.07;17.53;;;5.00;99.90;;;;;;5094214;28;20488;-69
2022/09/22 02:16:14;;;;;;;20.50;19.00;;;5.00;99.90;;;;;;5091019;28;20531;-69
2022/09/22 02:18:45;;;;;;;19.00;17.37;;;4.90;99.90;;;;;;5096055;28;20490;-69
2022/09/22 02:21:13;;;;;;;21.40;19.20;;;4.90;99.90;;;;;;5091224;28;20453;-68
2022/09/22 02:23:41;;;;;;;19.77;18.47;;;4.90;99.90;;;;;;5094610;28;20504;-68
2022/09/22 02:26:09;;;;;;;25.37;19.27;;;4.80;99.90;;;;;;5091893;28;20553;-68
2022/09/22 02:28:38;;;;;;;19.50;18.20;;;4.80;99.90;;;;;;5089962;28;20494;-68
2022/09/22 02:31:08;;;;;;;19.73;18.03;;;4.80;99.90;;;;;;5092817;28;20505;-68
2022/09/22 02:33:39;;;;;;;21.17;19.60;;;4.80;99.90;;;;;;5095088;28;20450;-68
2022/09/22 02:36:18;;;;;;;21.63;19.87;;;4.70;99.90;;;;;;5099855;28;20611;-68
2022/09/22 02:38:53;;;;;;;20.83;18.97;;;4.70;99.90;;;;;;5095886;28;20538;-68
2022/09/22 02:41:27;;;;;;;20.93;19.23;;;4.60;99.90;;;;;;5093701;28;20968;-68
2022/09/22 02:44:00;;;;;;;19.53;18.33;;;4.60;99.90;;;;;;5095730;28;20462;-68
2022/09/22 02:46:32;;;;;;;19.80;18.50;;;4.50;99.90;;;;;;5097139;28;20549;-68
2022/09/22 02:49:04;;;;;;;19.53;18.33;;;4.50;99.90;;;;;;5090823;28;20454;-68
2022/09/22 02:51:33;;;;;;;21.10;19.33;;;4.50;99.90;;;;;;5092179;28;20988;-68
2022/09/22 02:54:00;;;;;;;21.07;19.17;;;4.50;99.90;;;;;;5096522;28;20457;-68
2022/09/22 02:56:27;;;;;;;20.90;19.40;;;4.50;99.90;;;;;;5093109;28;20826;-69
2022/09/22 02:58:55;;;;;;;21.40;19.70;;;4.50;99.90;;;;;;5095731;28;20499;-68
2022/09/22 03:01:22;;;;;;;21.03;19.20;;;4.50;99.90;;;;;;5092151;28;20481;-68
2022/09/22 03:03:48;;;;;;;26.80;21.07;;;4.50;99.90;;;;;;5098435;28;20800;-68
2022/09/22 03:06:16;;;;;;;22.10;20.30;;;4.50;99.90;;;;;;5092773;28;20832;-68
2022/09/22 03:08:43;;;;;;;20.93;19.40;;;4.40;99.90;;;;;;5094363;28;20496;-68
2022/09/22 03:11:11;;;;;;;21.93;19.90;;;4.40;99.90;;;;;;5089703;28;20535;-68
2022/09/22 03:13:37;;;;;;;21.53;20.03;;;4.30;99.90;;;;;;5093157;28;20993;-68
2022/09/22 03:16:05;;;;;;;22.37;20.20;;;4.40;99.90;;;;;;5089525;28;20470;-68
2022/09/22 03:18:32;;;;;;;21.23;19.77;;;4.40;99.90;;;;;;5096905;28;20551;-68
2022/09/22 03:20:58;;;;;;;22.07;20.10;;;4.30;99.90;;;;;;5094869;28;20477;-68
2022/09/22 03:23:27;;;;;;;21.50;20.20;;;4.30;99.90;;;;;;5090482;28;20961;-68
2022/09/22 03:25:54;;;;;;;21.83;19.83;;;4.30;99.90;;;;;;5093255;28;20481;-68
2022/09/22 03:28:21;;;;;;;21.43;19.40;;;4.30;99.90;;;;;;5091622;28;20506;-68
2022/09/22 03:30:48;;;;;;;23.73;20.20;;;4.30;99.90;;;;;;5092348;28;20464;-68
2022/09/22 03:33:15;;;;;;;22.00;20.10;;;4.40;99.90;;;;;;5092269;28;20968;-68
2022/09/22 03:35:42;;;;;;;20.57;19.10;;;4.40;99.90;;;;;;5092808;28;20827;-68
2022/09/22 03:38:09;;;;;;;19.93;18.63;;;4.30;99.90;;;;;;5092292;28;20582;-68
2022/09/22 03:40:38;;;;;;;20.90;19.30;;;4.30;99.90;;;;;;5093009;28;20462;-68
2022/09/22 03:43:04;;;;;;;20.83;19.23;;;4.30;99.90;;;;;;5088347;28;20493;-68
2022/09/22 03:45:31;;;;;;;20.63;19.20;;;4.30;99.90;;;;;;5095019;28;20980;-68
2022/09/22 03:47:58;;;;;;;20.10;18.90;;;4.30;99.90;;;;;;5091981;28;20485;-68
2022/09/22 03:50:27;;;;;;;21.87;20.07;;;4.20;99.90;;;;;;5089168;28;20697;-68
2022/09/22 03:52:54;;;;;;;21.80;19.60;;;4.20;99.90;;;;;;5091021;28;20457;-68
2022/09/22 03:55:20;;;;;;;20.57;18.97;;;4.20;99.90;;;;;;5089891;28;20462;-68
2022/09/22 03:57:48;;;;;;;20.63;18.80;;;4.20;99.90;;;;;;5094110;28;20474;-68
2022/09/22 04:00:15;;;;;;;21.57;19.33;;;4.20;99.90;;;;;;5090561;28;20523;-67
2022/09/22 04:02:42;;;;;;;23.20;21.07;;;4.20;99.90;;;;;;5090399;28;20859;-68
2022/09/22 04:05:10;;;;;;;24.30;20.10;;;4.20;99.90;;;;;;5091279;28;20479;-68
2022/09/22 04:07:37;;;;;;;23.50;21.30;;;4.20;99.90;;;;;;5093425;28;20825;-67
2022/09/22 04:10:05;;;;;;;24.33;20.87;;;4.20;99.90;;;;;;5090632;28;20484;-67
2022/09/22 04:12:32;;;;;;;21.90;19.67;;;4.40;99.90;;;;;;5092686;28;20458;-67
2022/09/22 04:15:00;;;;;;;20.13;18.53;;;4.40;99.90;;;;;;5093302;28;20450;-67
2022/09/22 04:17:27;;;;;;;21.33;19.73;;;4.40;99.90;;;;;;5090491;28;20862;-68
2022/09/22 04:19:54;;;;;;;22.20;20.13;;;4.40;99.90;;;;;;5088659;28;20468;-67
2022/09/22 04:22:20;;;;;;;21.87;19.83;;;4.40;99.90;;;;;;5090354;28;20470;-68
2022/09/22 04:24:47;;;;;;;22.37;20.17;;;4.40;99.90;;;;;;5088246;28;20983;-67
2022/09/22 04:27:14;;;;;;;23.70;21.40;;;4.40;99.90;;;;;;5095531;28;20506;-68
2022/09/22 04:29:41;;;;;;;23.70;20.57;;;4.40;99.90;;;;;;5089580;28;20844;-67
2022/09/22 04:32:10;;;;;;;24.40;21.63;;;4.40;99.90;;;;;;5094886;28;20455;-67
2022/09/22 04:34:37;;;;;;;30.43;21.43;;;4.50;99.90;;;;;;5090237;28;20883;-67
2022/09/22 04:37:05;;;;;;;22.40;20.50;;;4.60;99.90;;;;;;5087065;28;20456;-67
2022/09/22 04:39:32;;;;;;;22.10;19.90;;;4.60;99.90;;;;;;5093167;28;20488;-67
2022/09/22 04:41:59;;;;;;;22.53;20.87;;;4.60;99.90;;;;;;5089304;28;23157;-67
2022/09/22 04:44:25;;;;;;;21.77;19.87;;;4.60;99.90;;;;;;5096461;28;20889;-68
2022/09/22 04:46:54;;;;;;;22.20;20.37;;;4.70;99.90;;;;;;5093989;28;20541;-67
2022/09/22 04:49:23;;;;;;;21.20;19.33;;;4.70;99.90;;;;;;5091747;28;20450;-67
2022/09/22 04:51:50;;;;;;;23.03;20.80;;;4.70;99.90;;;;;;5091152;28;20470;-67
2022/09/22 04:54:17;;;;;;;21.40;19.30;;;4.70;99.90;;;;;;5093148;28;21006;-68
2022/09/22 04:56:44;;;;;;;29.67;20.17;;;4.70;99.90;;;;;;5095804;28;20466;-68
2022/09/22 04:59:11;;;;;;;21.70;20.10;;;4.80;99.90;;;;;;5091955;28;21074;-67
2022/09/22 05:01:38;;;;;;;21.83;19.80;;;4.80;99.90;;;;;;5090567;28;20473;-67
2022/09/22 05:04:05;;;;;;;21.77;20.00;;;4.80;99.90;;;;;;5091581;28;20577;-67
2022/09/22 05:06:35;;;;;;;26.50;20.20;;;4.80;99.90;;;;;;5091008;28;20454;-67
2022/09/22 05:09:03;;;;;;;21.37;19.47;;;4.70;99.90;;;;;;5094700;28;20455;-67
2022/09/22 05:11:31;;;;;;;21.97;20.33;;;4.70;99.90;;;;;;5095370;28;20558;-67
2022/09/22 05:13:58;;;;;;;21.57;20.20;;;4.70;99.90;;;;;;5091230;28;20453;-67
2022/09/22 05:16:25;;;;;;;21.60;20.10;;;4.60;99.90;;;;;;5090778;28;20472;-67
2022/09/22 05:18:52;;;;;;;22.07;19.80;;;4.70;99.90;;;;;;5089784;28;20993;-67
2022/09/22 05:21:19;;;;;;;22.30;20.33;;;4.70;99.90;;;;;;5093444;28;20464;-67
2022/09/22 05:23:48;;;;;;;21.87;19.83;;;4.70;99.90;;;;;;5093903;28;20474;-67
2022/09/22 05:26:15;;;;;;;29.10;22.80;;;4.80;99.90;;;;;;5094145;28;20830;-67
2022/09/22 05:28:42;;;;;;;23.50;21.07;;;4.80;99.90;;;;;;5089441;28;20493;-67
2022/09/22 05:31:08;;;;;;;23.27;21.03;;;4.80;99.90;;;;;;5094161;28;20844;-67
2022/09/22 05:33:35;;;;;;;22.10;19.97;;;4.90;99.90;;;;;;5098318;28;20887;-67
2022/09/22 05:36:02;;;;;;;22.97;21.00;;;4.90;99.90;;;;;;5094219;28;20466;-67
2022/09/22 05:38:29;;;;;;;22.73;21.13;;;4.90;99.90;;;;;;5090182;28;20495;-67
2022/09/22 05:40:58;;;;;;;23.17;21.30;;;4.90;99.90;;;;;;5089957;28;20553;-68
2022/09/22 05:43:25;;;;;;;23.60;21.30;;;4.90;99.90;;;;;;5089831;28;20495;-67
2022/09/22 05:45:51;;;;;;;20.67;19.17;;;5.00;99.90;;;;;;5090307;28;20464;-68
2022/09/22 05:48:18;;;;;;;22.37;20.50;;;5.00;99.90;;;;;;5093635;28;20691;-68
2022/09/22 05:50:45;;;;;;;22.20;20.50;;;5.00;99.90;;;;;;5096905;28;20457;-68
2022/09/22 05:53:12;;;;;;;21.40;19.70;;;5.10;99.90;;;;;;5091234;28;20553;-67
2022/09/22 05:55:41;;;;;;;20.77;19.30;;;5.10;99.90;;;;;;5096587;28;20515;-68
2022/09/22 05:58:11;;;;;;;20.37;18.77;;;5.10;99.90;;;;;;5094190;28;21021;-68
2022/09/22 06:00:39;;;;;;;20.90;19.27;;;5.20;99.90;;;;;;5091795;28;20471;-68
2022/09/22 06:03:06;;;;;;;20.80;19.03;;;5.20;99.90;;;;;;5100680;28;20459;-68
2022/09/22 06:05:33;;;;;;;19.97;18.57;;;5.30;99.90;;;;;;5091159;28;20466;-68
2022/09/22 06:08:02;;;;;;;21.50;19.50;;;5.40;99.90;;;;;;5091636;28;20470;-67
2022/09/22 06:10:30;;;;;;;20.53;18.90;;;5.40;99.90;;;;;;5090205;28;21018;-68
2022/09/22 06:13:00;;;;;;;21.03;19.23;;;5.40;99.90;;;;;;5090710;28;20469;-68
2022/09/22 06:15:29;;;;;;;21.67;19.60;;;5.60;99.90;;;;;;5095627;28;20468;-67
2022/09/22 06:17:56;;;;;;;21.63;19.33;;;5.80;99.90;;;;;;5092308;28;20463;-68
2022/09/22 06:20:23;;;;;;;19.07;17.63;;;5.90;99.90;;;;;;5090323;28;20497;-67
2022/09/22 06:22:50;;;;;;;21.83;17.90;;;6.00;99.90;;;;;;5089444;28;20564;-68
2022/09/22 06:25:17;;;;;;;21.10;18.97;;;6.10;99.90;;;;;;5089825;28;20464;-68
2022/09/22 06:27:45;;;;;;;20.63;18.63;;;6.20;99.90;;;;;;5089480;28;20480;-67
2022/09/22 06:30:13;;;;;;;21.17;18.17;;;6.40;99.90;;;;;;5089278;28;20467;-68
2022/09/22 06:32:44;;;;;;;19.83;18.07;;;6.50;99.90;;;;;;5095919;28;20483;-68
2022/09/22 06:35:11;;;;;;;19.17;17.93;;;6.70;99.90;;;;;;5090927;28;20469;-68
2022/09/22 06:37:39;;;;;;;20.20;18.30;;;6.80;99.90;;;;;;5095191;28;20462;-68
2022/09/22 06:40:08;;;;;;;19.80;18.20;;;7.00;99.90;;;;;;5094253;28;20488;-68
2022/09/22 06:42:34;;;;;;;20.77;18.63;;;7.20;99.90;;;;;;5093554;28;20869;-68
2022/09/22 06:45:03;;;;;;;21.50;19.60;;;7.30;99.90;;;;;;5088257;28;20569;-68
2022/09/22 06:47:32;;;;;;;21.63;18.17;;;7.40;99.90;;;;;;5092450;28;20461;-68
2022/09/22 06:50:04;;;;;;;24.23;17.70;;;7.50;99.90;;;;;;5095547;28;20452;-69
2022/09/22 06:52:31;;;;;;;20.50;18.60;;;7.60;99.90;;;;;;5093988;28;21023;-68
2022/09/22 06:55:00;;;;;;;19.77;18.27;;;7.80;99.90;;;;;;5091952;28;20456;-68
2022/09/22 06:57:31;;;;;;;20.80;19.10;;;8.00;99.90;;;;;;5090746;28;21649;-69
2022/09/22 06:59:58;;;;;;;20.83;19.40;;;8.10;99.90;;;;;;5093417;28;20838;-68
2022/09/22 07:02:28;;;;;;;19.33;17.80;;;8.10;99.90;;;;;;5090535;28;20836;-70
2022/09/22 07:04:57;;;;;;;20.00;18.57;;;8.20;99.90;;;;;;5089064;28;20465;-68
2022/09/22 07:07:27;;;;;;;21.17;19.20;;;8.30;99.90;;;;;;5088434;28;20565;-68
2022/09/22 07:09:54;;;;;;;20.17;18.47;;;8.30;99.90;;;;;;5089945;28;20470;-68
2022/09/22 07:12:21;;;;;;;21.27;19.50;;;8.40;99.90;;;;;;5094527;28;20886;-69
2022/09/22 07:14:50;;;;;;;20.30;18.50;;;8.50;99.90;;;;;;5094829;28;20458;-69
2022/09/22 07:17:17;;;;;;;22.17;20.40;;;8.60;99.90;;;;;;5093533;28;20490;-69
2022/09/22 07:19:46;;;;;;;21.13;19.13;;;8.60;99.90;;;;;;5089712;28;20486;-68
2022/09/22 07:22:14;;;;;;;20.50;19.07;;;8.70;99.90;;;;;;5082703;28;20714;-68
2022/09/22 07:24:43;;;;;;;22.80;21.00;;;8.80;99.90;;;;;;5092820;28;20791;-69
2022/09/22 07:27:11;;;;;;;22.33;20.03;;;8.90;99.90;;;;;;5095891;28;21058;-69
2022/09/22 07:29:39;;;;;;;21.70;20.13;;;8.90;99.90;;;;;;5091308;28;20466;-69
2022/09/22 07:32:06;;;;;;;23.00;21.20;;;9.10;99.90;;;;;;5088100;28;20466;-68
2022/09/22 07:34:33;;;;;;;23.93;21.00;;;9.10;99.90;;;;;;5091622;28;20493;-68
2022/09/22 07:37:01;;;;;;;21.83;20.03;;;9.30;99.90;;;;;;5085401;28;20458;-68
2022/09/22 07:39:28;;;;;;;21.90;20.47;;;9.40;99.90;;;;;;5094015;28;21001;-69
2022/09/22 07:41:57;;;;;;;21.87;19.67;;;9.50;99.90;;;;;;5084695;28;20855;-69
2022/09/22 07:47:08;;;;;;;21.97;20.20;;;9.60;99.90;;;;;;5087059;28;20465;-68
2022/09/22 07:49:35;;;;;;;21.57;19.97;;;9.60;99.90;;;;;;5092342;28;20462;-68
2022/09/22 07:52:02;;;;;;;20.87;18.70;;;9.80;99.90;;;;;;5090566;28;20465;-68
2022/09/22 07:54:29;;;;;;;20.37;18.60;;;9.90;99.90;;;;;;5091756;28;20470;-69
2022/09/22 07:56:58;;;;;;;21.33;19.30;;;10.00;99.90;;;;;;5091027;28;20480;-69
2022/09/22 07:59:26;;;;;;;21.57;19.43;;;10.10;99.90;;;;;;5093760;28;20485;-68
2022/09/22 08:01:53;;;;;;;20.63;19.00;;;10.30;99.90;;;;;;5089981;28;20562;-67
2022/09/22 08:04:22;;;;;;;25.50;19.17;;;10.30;99.90;;;;;;5091050;28;20469;-68
2022/09/22 08:06:54;;;;;;;22.57;20.67;;;10.40;99.90;;;;;;5091701;28;20466;-69
2022/09/22 08:09:22;;;;;;;28.03;19.60;;;10.50;99.90;;;;;;5092664;28;20576;-69
2022/09/22 08:11:49;;;;;;;21.27;19.50;;;10.60;99.90;;;;;;5089636;28;20557;-69
2022/09/22 08:14:19;;;;;;;20.77;18.90;;;10.70;99.90;;;;;;5091758;28;20494;-70
2022/09/22 08:16:48;;;;;;;21.10;17.97;;;10.80;99.90;;;;;;5092598;28;20462;-69
2022/09/22 08:19:14;;;;;;;20.10;18.43;;;10.90;99.90;;;;;;5096320;28;20508;-68
2022/09/22 08:21:43;;;;;;;22.63;18.53;;;11.00;99.90;;;;;;5095675;28;20464;-69
2022/09/22 08:24:12;;;;;;;20.23;18.10;;;11.20;99.90;;;;;;5096760;28;20457;-69
2022/09/22 08:26:42;;;;;;;19.90;17.90;;;11.30;99.90;;;;;;5095990;28;20485;-69
2022/09/22 08:29:10;;;;;;;19.97;18.07;;;11.40;99.90;;;;;;5104055;28;20533;-71
2022/09/22 08:31:40;;;;;;;21.17;18.00;;;11.60;99.90;;;;;;5097095;28;20457;-69
2022/09/22 08:34:09;;;;;;;18.70;17.00;;;11.70;99.90;;;;;;5092930;28;20540;-70
2022/09/22 08:36:38;;;;;;;19.23;17.47;;;11.90;99.90;;;;;;5093140;28;21039;-69
2022/09/22 08:39:05;;;;;;;17.77;16.40;;;12.00;99.90;;;;;;5094825;28;20508;-71
2022/09/22 08:41:39;;;;;;;18.97;17.37;;;12.10;99.90;;;;;;5096173;28;20515;-69
2022/09/22 08:44:21;;;;;;;17.20;16.10;;;12.20;99.90;;;;;;5088499;28;20457;-70
2022/09/22 08:46:50;;;;;;;18.00;16.70;;;12.40;99.90;;;;;;5095216;28;20820;-68
2022/09/22 08:52:16;;;;;;;17.50;15.80;;;12.60;99.90;;;;;;5097524;28;20864;-70
2022/09/22 08:54:44;;;;;;;17.20;15.90;;;12.90;99.90;;;;;;5094185;28;20453;-69
2022/09/22 08:57:34;;;;;;;19.30;17.83;;;13.10;99.90;;;;;;5092554;28;20484;-69
2022/09/22 09:00:05;;;;;;;18.53;16.60;;;13.10;99.90;;;;;;5091710;28;20613;-69
2022/09/22 09:02:44;;;;;;;18.43;17.13;;;13.40;99.90;;;;;;5092827;28;20490;-71
2022/09/22 09:06:00;;;;;;;18.70;17.40;;;13.50;99.90;;;;;;5098267;28;20824;-69
2022/09/22 09:09:06;;;;;;;17.67;16.40;;;13.60;99.90;;;;;;5090945;28;20888;-69
2022/09/22 09:11:49;;;;;;;18.37;17.03;;;13.80;99.90;;;;;;5090216;28;20465;-71
2022/09/22 09:14:29;;;;;;;17.73;16.43;;;14.00;99.90;;;;;;5089730;28;20828;-69
2022/09/22 09:17:02;;;;;;;18.53;16.90;;;14.20;99.90;;;;;;5087122;28;20550;-71
2022/09/22 09:19:35;;;;;;;19.57;18.00;;;14.30;99.90;;;;;;5091084;28;21109;-72
2022/09/22 09:22:07;;;;;;;18.47;17.17;;;14.50;99.90;;;;;;5092671;28;20485;-69
2022/09/22 09:24:41;;;;;;;18.80;17.20;;;14.70;99.90;;;;;;5097206;28;20957;-69
2022/09/22 09:27:13;;;;;;;17.00;15.77;;;14.90;99.90;;;;;;5097046;28;20559;-71
2022/09/22 09:29:49;;;;;;;17.00;16.00;;;15.20;99.90;;;;;;5090151;28;20873;-69
2022/09/22 09:32:25;;;;;;;17.60;16.50;;;15.60;99.90;;;;;;5088879;28;20456;-71
2022/09/22 09:34:53;;;;;;;18.43;16.57;;;16.40;99.90;;;;;;5095026;28;20496;-69
2022/09/22 09:37:21;;;;;;;18.57;17.10;;;17.30;99.90;;;;;;5091413;28;20497;-71
2022/09/22 09:39:48;;;;;;;17.50;16.17;;;18.30;99.90;;;;;;5090521;28;20481;-69
2022/09/22 09:42:20;;;;;;;18.30;16.73;;;19.30;99.90;;;;;;5094597;28;20476;-69
2022/09/22 09:44:52;;;;;;;17.90;16.57;;;19.60;99.90;;;;;;5091480;28;20823;-69
2022/09/22 09:47:29;;;;;;;19.37;16.50;;;19.70;99.90;;;;;;5088244;28;20520;-70
2022/09/22 09:49:58;;;;;;;17.87;16.30;;;20.40;99.90;;;;;;5089469;28;20861;-69
2022/09/22 09:52:26;;;;;;;18.27;16.70;;;20.60;99.90;;;;;;5091383;28;20462;-70
2022/09/22 09:54:54;;;;;;;18.73;16.80;;;21.20;99.90;;;;;;5096248;28;20977;-70
2022/09/22 09:57:22;;;;;;;18.00;16.30;;;21.70;99.90;;;;;;5096282;28;20472;-70
2022/09/22 10:03:03;;;;;;;16.80;15.73;;;21.80;96.70;;;;;;5090774;28;20943;-70
2022/09/22 10:05:36;;;;;;;17.07;15.83;;;21.70;94.80;;;;;;5087410;28;20493;-69
2022/09/22 10:08:15;;;;;;;17.70;16.10;;;21.60;94.30;;;;;;5097150;28;20504;-69
2022/09/22 10:10:42;;;;;;;17.60;16.27;;;21.40;93.40;;;;;;5087716;28;20530;-69
2022/09/22 10:13:33;;;;;;;17.00;16.00;;;20.70;93.30;;;;;;5088929;28;22724;-69
2022/09/22 10:16:03;;;;;;;17.53;16.20;;;20.70;95.50;;;;;;5088749;28;20457;-68
2022/09/22 10:18:35;;;;;;;17.23;16.07;;;21.00;92.10;;;;;;5092665;28;20919;-67
2022/09/22 10:21:06;;;;;;;17.00;15.80;;;21.20;91.70;;;;;;5095569;28;20495;-68
2022/09/22 10:23:34;;;;;;;17.33;16.00;;;21.90;90.60;;;;;;5096479;28;20516;-68
2022/09/22 10:26:25;;;;;;;16.60;15.40;;;22.00;87.50;;;;;;5087794;28;20460;-70
2022/09/22 10:29:16;;;;;;;17.40;16.03;;;22.00;88.80;;;;;;5090311;28;20594;-71
2022/09/22 10:32:01;;;;;;;16.63;15.83;;;22.30;83.20;;;;;;5087292;28;20450;-71
2022/09/22 10:34:31;;;;;;;15.83;15.13;;;23.20;81.10;;;;;;5095211;28;20527;-67
2022/09/22 10:37:06;;;;;;;17.03;16.13;;;23.60;78.40;;;;;;5095025;28;20441;-68
2022/09/22 10:39:39;;;;;;;16.70;15.73;;;23.90;75.20;;;;;;5091657;28;20495;-70
2022/09/22 10:42:14;;;;;;;17.00;16.00;;;24.30;73.30;;;;;;5091382;28;20472;-69
2022/09/22 10:44:41;;;;;;;16.33;15.43;;;24.60;68.70;;;;;;5089764;28;20464;-68
2022/09/22 10:47:31;;;;;;;16.77;15.97;;;24.80;68.00;;;;;;5088630;28;20563;-70
2022/09/22 10:50:30;;;;;;;16.50;15.57;;;24.80;61.30;;;;;;5089082;28;20458;-69
2022/09/22 10:53:05;;;;;;;16.37;15.57;;;24.40;59.40;;;;;;5085090;28;20485;-68
2022/09/22 10:55:35;;;;;;;17.23;16.33;;;25.20;60.80;;;;;;5098954;28;20461;-69
2022/09/22 10:58:35;;;;;;;16.83;15.83;;;25.40;58.20;;;;;;5095267;28;20473;-71
2022/09/22 11:01:21;;;;;;;18.03;16.70;;;25.40;57.10;;;;;;5084415;28;20491;-70
2022/09/22 11:04:11;;;;;;;16.97;15.77;;;25.30;55.70;;;;;;5088113;28;20482;-69
2022/09/22 11:12:48;;;;;;;16.10;15.40;;;25.00;55.00;;;;;;5090537;28;20498;-70
2022/09/22 11:15:46;;;;;;;16.37;15.30;;;25.50;52.70;;;;;;5096464;28;20991;-72
2022/09/22 11:18:48;;;;;;;16.67;15.87;;;25.80;52.00;;;;;;5095782;28;20540;-70
2022/09/22 11:21:30;;;;;;;17.60;16.70;;;26.10;54.00;;;;;;5094510;28;20485;-71
2022/09/22 11:24:12;;;;;;;17.20;16.40;;;27.10;53.20;;;;;;5095537;28;20469;-69
2022/09/22 11:26:48;;;;;;;17.60;16.50;;;26.60;49.60;;;;;;5091396;28;20891;-70
2022/09/22 11:29:44;;;;;;;17.27;16.37;;;26.70;49.00;;;;;;5090933;28;20489;-69
2022/09/22 11:32:24;;;;;;;17.90;16.80;;;26.40;48.30;;;;;;5088890;28;21009;-69
2022/09/22 11:35:13;;;;;;;17.27;16.37;;;25.90;50.00;;;;;;5093714;28;20452;-69
2022/09/22 11:37:50;;;;;;;17.87;16.60;;;26.10;50.70;;;;;;5090197;28;20458;-70
2022/09/22 11:40:49;;;;;;;17.57;16.20;;;26.10;48.00;;;;;;5091980;28;20529;-69
2022/09/22 11:43:37;;;;;;;16.80;16.00;;;26.40;47.60;;;;;;5090354;28;20617;-68
2022/09/22 11:46:10;;;;;;;17.17;16.27;;;26.00;47.40;;;;;;5090661;28;20531;-69
2022/09/22 11:48:51;;;;;;;16.77;15.67;;;25.70;48.40;;;;;;5084343;28;20871;-72
2022/09/22 11:51:36;;;;;;;16.23;15.30;;;25.20;50.90;;;;;;5088038;28;20462;-69
2022/09/22 11:54:30;;;;;;;16.40;15.70;;;26.20;48.50;;;;;;5094698;28;20457;-68
2022/09/22 11:57:01;;;;;;;17.43;16.13;;;26.80;45.40;;;;;;5096011;28;20470;-68
2022/09/22 11:59:39;;;;;;;16.90;15.90;;;27.20;45.50;;;;;;5095460;28;20450;-69
2022/09/22 12:02:16;;;;;;;16.70;15.60;;;27.00;44.10;;;;;;5100334;28;20550;-70
2022/09/22 12:04:48;;;;;;;17.50;16.43;;;27.20;43.70;;;;;;5095123;28;20755;-71
2022/09/22 12:07:18;;;;;;;17.10;16.20;;;27.50;43.40;;;;;;5084646;28;20461;-68
2022/09/22 12:09:50;;;;;;;16.90;15.90;;;27.80;44.90;;;;;;5091481;28;20584;-68
2022/09/22 12:12:20;;;;;;;17.30;16.10;;;28.00;42.90;;;;;;5094401;28;20952;-68
2022/09/22 12:14:57;;;;;;;16.03;15.33;;;28.30;41.30;;;;;;5093850;28;20458;-69
2022/09/22 12:17:29;;;;;;;16.87;16.07;;;28.20;40.80;;;;;;5090917;28;20461;-69
2022/09/22 12:20:03;;;;;;;16.33;15.53;;;28.00;41.80;;;;;;5090584;28;20464;-69
2022/09/22 12:22:36;;;;;;;17.30;16.40;;;28.00;40.60;;;;;;5092320;28;20544;-70
2022/09/22 12:25:04;;;;;;;17.27;16.47;;;28.10;42.10;;;;;;5090514;28;20462;-69
2022/09/22 12:27:31;;;;;;;17.50;16.60;;;28.60;41.90;;;;;;5091710;28;20496;-70
2022/09/22 12:30:02;;;;;;;17.97;16.50;;;28.90;42.10;;;;;;5092937;28;20453;-71
2022/09/22 12:32:35;;;;;;;16.63;15.87;;;28.60;42.50;;;;;;5095054;28;20466;-70
2022/09/22 12:35:03;;;;;;;17.30;16.50;;;28.30;41.00;;;;;;5093350;28;20559;-70
2022/09/22 12:37:33;;;;;;;16.20;15.50;;;28.00;41.20;;;;;;5092388;28;20486;-70
2022/09/22 12:40:18;;;;;;;16.77;15.97;;;28.00;42.50;;;;;;5093097;28;20972;-71
2022/09/22 12:42:49;;;;;;;17.03;16.00;;;27.90;42.60;;;;;;5097152;28;20466;-70
2022/09/22 12:45:22;;;;;;;18.90;17.30;;;27.50;39.60;;;;;;5093533;28;20458;-70
2022/09/22 12:47:52;;;;;;;16.27;15.47;;;27.90;41.00;;;;;;5094577;28;20456;-70
2022/09/22 12:50:36;;;;;;;15.37;14.63;;;27.90;41.30;;;;;;5090822;28;20461;-70
2022/09/22 12:53:09;;;;;;;16.37;15.57;;;27.90;41.00;;;;;;5092500;28;20462;-70
2022/09/22 12:55:39;;;;;;;15.63;14.77;;;27.40;40.60;;;;;;5095242;28;20549;-70
2022/09/22 12:58:39;;;;;;;16.27;15.27;;;27.30;41.40;;;;;;5095313;28;20454;-70
2022/09/22 13:01:34;;;;;;;17.47;16.23;;;27.30;40.80;;;;;;5075391;28;20497;-71
2022/09/22 13:04:13;;;;;;;16.37;15.57;;;28.20;42.50;;;;;;5090963;28;20971;-69
2022/09/22 13:07:05;;;;;;;15.03;14.23;;;28.40;41.60;;;;;;5093443;28;20556;-71
2022/09/22 13:09:32;;;;;;;15.97;14.87;;;27.70;41.80;;;;;;5071110;28;20580;-71
2022/09/22 13:12:21;;;;;;;16.13;15.33;;;27.60;41.80;;;;;;5096750;28;20568;-72